createdAt,value
2018-09-21T00:00:21.700Z,14.97
2018-09-21T00:02:51.299Z,18.67
2018-09-21T00:05:20.951Z,19.27
2018-09-21T00:07:50.688Z,18.10
2018-09-21T00:10:20.398Z,12.90
2018-09-21T00:12:49.998Z,15.37
2018-09-21T00:15:19.890Z,13.67
2018-09-21T00:17:49.838Z,14.97
2018-09-21T00:20:19.415Z,19.93
2018-09-21T00:22:49.046Z,19.57
2018-09-21T00:25:18.858Z,21.93
2018-09-21T00:27:48.386Z,16.03
2018-09-21T00:30:18.105Z,15.40
2018-09-21T00:32:48.723Z,16.37
2018-09-21T00:35:18.475Z,17.90
2018-09-21T00:37:48.024Z,17.70
2018-09-21T00:40:17.567Z,18.70
2018-09-21T00:42:47.352Z,15.97
2018-09-21T00:45:16.951Z,13.73
2018-09-21T00:47:46.762Z,18.50
2018-09-21T00:50:16.315Z,13.97
2018-09-21T00:52:46.110Z,19.43
2018-09-21T00:55:15.876Z,17.90
2018-09-21T00:57:45.391Z,14.63
2018-09-21T01:00:14.996Z,17.00
2018-09-21T01:02:44.620Z,14.97
2018-09-21T01:05:14.281Z,16.30
2018-09-21T01:07:43.826Z,19.93
2018-09-21T01:10:13.540Z,22.03
2018-09-21T01:12:43.142Z,16.70
2018-09-21T01:15:13.062Z,15.80
2018-09-21T01:17:42.601Z,20.20
2018-09-21T01:20:12.465Z,22.50
2018-09-21T01:22:42.123Z,16.87
2018-09-21T01:25:11.883Z,16.50
2018-09-21T01:27:41.449Z,14.97
2018-09-21T01:30:11.194Z,16.43
2018-09-21T01:32:40.853Z,14.60
2018-09-21T01:35:10.605Z,13.77
2018-09-21T01:37:40.285Z,14.03
2018-09-21T01:40:09.851Z,11.63
2018-09-21T01:42:39.390Z,11.67
2018-09-21T01:45:08.929Z,11.40
2018-09-21T01:47:38.516Z,13.17
2018-09-21T01:50:08.107Z,12.20
2018-09-21T01:52:37.673Z,10.73
2018-09-21T01:55:07.557Z,12.60
2018-09-21T01:57:37.243Z,18.13
2018-09-21T02:00:07.107Z,9.80
2018-09-21T02:02:36.731Z,16.97
2018-09-21T02:05:06.687Z,9.37
2018-09-21T02:07:36.460Z,15.17
2018-09-21T02:10:06.286Z,18.70
2018-09-21T02:12:35.964Z,13.70
2018-09-21T02:15:05.500Z,16.73
2018-09-21T02:17:35.172Z,14.97
2018-09-21T02:20:04.986Z,15.83
2018-09-21T02:22:34.441Z,14.77
2018-09-21T02:25:04.153Z,18.87
2018-09-21T02:27:33.751Z,12.07
2018-09-21T02:30:03.489Z,25.10
2018-09-21T02:32:33.064Z,19.57
2018-09-21T02:35:02.748Z,12.33
2018-09-21T02:37:33.113Z,19.67
2018-09-21T02:40:02.740Z,18.70
2018-09-21T02:42:32.316Z,15.30
2018-09-21T02:45:02.056Z,15.97
2018-09-21T02:47:31.776Z,13.03
2018-09-21T02:50:01.348Z,12.10
2018-09-21T02:52:31.167Z,13.30
2018-09-21T02:55:00.657Z,12.77
2018-09-21T02:57:30.353Z,17.23
2018-09-21T03:00:00.404Z,15.10
2018-09-21T03:02:29.898Z,12.90
2018-09-21T03:04:59.616Z,17.27
2018-09-21T03:07:29.206Z,15.80
2018-09-21T03:09:58.982Z,13.37
2018-09-21T03:12:28.614Z,18.83
2018-09-21T03:14:58.378Z,17.23
2018-09-21T03:17:28.060Z,14.00
2018-09-21T03:19:57.784Z,19.10
2018-09-21T03:22:27.468Z,22.97
2018-09-21T03:24:57.209Z,18.50
2018-09-21T03:27:26.801Z,23.30
2018-09-21T03:29:56.422Z,19.47
2018-09-21T03:32:26.019Z,18.40
2018-09-21T03:34:55.756Z,17.57
2018-09-21T03:37:25.409Z,13.10
2018-09-21T03:39:55.132Z,15.50
2018-09-21T03:42:24.655Z,14.70
2018-09-21T03:44:54.341Z,11.70
2018-09-21T03:47:23.947Z,11.37
2018-09-21T03:49:53.687Z,14.77
2018-09-21T03:52:23.289Z,12.93
2018-09-21T03:54:53.074Z,13.87
2018-09-21T03:57:22.667Z,13.13
2018-09-21T03:59:52.526Z,14.13
2018-09-21T04:02:22.154Z,18.07
2018-09-21T04:04:52.012Z,17.87
2018-09-21T04:07:21.647Z,17.83
2018-09-21T04:09:51.151Z,19.03
2018-09-21T04:12:20.822Z,14.13
2018-09-21T04:14:50.598Z,16.67
2018-09-21T04:17:20.233Z,21.83
2018-09-21T04:19:49.886Z,18.00
2018-09-21T04:22:19.641Z,15.93
2018-09-21T04:24:49.468Z,13.17
2018-09-21T04:27:18.934Z,15.23
2018-09-21T04:29:48.825Z,13.67
2018-09-21T04:32:18.415Z,14.90
2018-09-21T04:34:48.252Z,18.50
2018-09-21T04:37:18.518Z,14.10
2018-09-21T04:39:48.183Z,15.27
2018-09-21T04:42:18.040Z,32.03
2018-09-21T04:44:47.765Z,32.40
2018-09-21T04:47:17.256Z,31.30
2018-09-21T04:49:46.862Z,66.63
2018-09-21T04:52:16.647Z,32.73
2018-09-21T04:54:46.627Z,14.73
2018-09-21T04:57:16.445Z,20.90
2018-09-21T04:59:46.110Z,14.07
2018-09-21T05:02:15.746Z,14.43
2018-09-21T05:04:45.426Z,16.07
2018-09-21T05:07:15.046Z,17.57
2018-09-21T05:09:44.683Z,14.10
2018-09-21T05:12:14.242Z,17.10
2018-09-21T05:14:44.133Z,18.27
2018-09-21T05:17:14.773Z,31.03
2018-09-21T05:19:44.499Z,20.33
2018-09-21T05:22:14.104Z,21.27
2018-09-21T05:24:43.605Z,58.97
2018-09-21T05:27:13.279Z,16.83
2018-09-21T05:29:43.048Z,20.93
2018-09-21T05:32:27.084Z,24.90
2018-09-21T05:34:56.985Z,39.90
2018-09-21T05:37:26.584Z,26.03
2018-09-21T05:39:56.419Z,21.97
2018-09-21T05:42:25.957Z,24.73
2018-09-21T05:44:55.616Z,23.77
2018-09-21T05:47:25.177Z,21.93
2018-09-21T05:49:54.857Z,19.50
2018-09-21T05:52:24.365Z,29.03
2018-09-21T05:54:54.722Z,18.03
2018-09-21T05:57:24.359Z,20.27
2018-09-21T05:59:54.116Z,16.83
2018-09-21T06:02:23.775Z,26.37
2018-09-21T06:05:08.703Z,31.03
2018-09-21T06:07:38.642Z,19.23
2018-09-21T06:10:10.089Z,21.00
2018-09-21T06:12:39.770Z,20.43
2018-09-21T06:15:10.450Z,24.37
2018-09-21T06:17:40.307Z,30.70
2018-09-21T06:20:12.797Z,42.63
2018-09-21T06:22:45.103Z,29.87
2018-09-21T06:25:09.530Z,20.73
2018-09-21T06:27:40.386Z,31.97
2018-09-21T06:30:10.135Z,23.17
2018-09-21T06:32:39.994Z,25.63
2018-09-21T06:35:09.751Z,22.40
2018-09-21T06:37:39.735Z,20.80
2018-09-21T06:40:09.299Z,18.67
2018-09-21T06:42:38.839Z,20.03
2018-09-21T06:45:08.666Z,21.13
2018-09-21T06:47:38.468Z,24.93
2018-09-21T06:50:08.165Z,23.53
2018-09-21T06:52:37.955Z,18.83
2018-09-21T06:55:07.845Z,21.77
2018-09-21T06:57:37.502Z,19.57
2018-09-21T07:00:07.496Z,21.60
2018-09-21T07:02:37.330Z,20.43
2018-09-21T07:05:14.882Z,27.40
2018-09-21T07:07:44.978Z,24.00
2018-09-21T07:10:15.139Z,15.70
2018-09-21T07:12:44.928Z,29.73
2018-09-21T07:15:14.609Z,15.60
2018-09-21T07:17:45.185Z,19.30
2018-09-21T07:20:14.931Z,18.47
2018-09-21T07:22:44.805Z,33.47
2018-09-21T07:25:14.660Z,41.57
2018-09-21T07:27:44.328Z,18.57
2018-09-21T07:30:13.938Z,12.47
2018-09-21T07:32:43.907Z,35.30
2018-09-21T07:35:13.746Z,21.03
2018-09-21T07:37:43.510Z,23.67
2018-09-21T07:40:13.432Z,39.43
2018-09-21T07:42:43.246Z,14.23
2018-09-21T07:45:12.902Z,19.23
2018-09-21T07:47:42.419Z,18.60
2018-09-21T07:50:12.209Z,23.43
2018-09-21T07:52:41.923Z,20.87
2018-09-21T07:55:11.660Z,12.07
2018-09-21T07:57:41.353Z,18.00
2018-09-21T08:00:11.019Z,9.77
2018-09-21T08:02:40.659Z,15.67
2018-09-21T08:05:10.444Z,17.80
2018-09-21T08:07:42.286Z,12.83
2018-09-21T08:10:12.048Z,10.00
2018-09-21T08:12:41.645Z,13.13
2018-09-21T08:15:11.302Z,18.13
2018-09-21T08:17:41.095Z,12.97
2018-09-21T08:20:11.545Z,10.67
2018-09-21T08:22:41.763Z,28.27
2018-09-21T08:25:11.592Z,11.50
2018-09-21T08:27:41.361Z,13.40
2018-09-21T08:30:11.124Z,16.77
2018-09-21T08:32:41.035Z,21.97
2018-09-21T08:35:10.722Z,15.07
2018-09-21T08:37:40.379Z,13.20
2018-09-21T08:40:10.167Z,18.73
2018-09-21T08:42:39.703Z,9.83
2018-09-21T08:45:09.630Z,8.43
2018-09-21T08:47:39.717Z,9.73
2018-09-21T08:50:10.144Z,13.63
2018-09-21T08:52:39.718Z,9.90
2018-09-21T08:55:09.410Z,10.70
2018-09-21T08:57:39.137Z,7.10
2018-09-21T09:00:08.892Z,6.70
2018-09-21T09:02:38.632Z,10.93
2018-09-21T09:05:08.422Z,10.77
2018-09-21T09:07:38.144Z,9.13
2018-09-21T09:10:08.016Z,6.83
2018-09-21T09:12:37.834Z,12.70
2018-09-21T09:15:07.640Z,18.13
2018-09-21T09:17:37.513Z,20.27
2018-09-21T09:20:08.436Z,5.70
2018-09-21T09:22:38.360Z,11.50
2018-09-21T09:25:08.482Z,13.73
2018-09-21T09:27:38.491Z,10.63
2018-09-21T09:30:08.446Z,14.60
2018-09-21T09:32:38.108Z,26.80
2018-09-21T09:35:07.800Z,12.23
2018-09-21T09:37:37.438Z,11.27
2018-09-21T09:40:07.196Z,14.17
2018-09-21T09:42:37.002Z,12.13
2018-09-21T09:45:06.978Z,7.80
2018-09-21T09:47:36.768Z,11.03
2018-09-21T09:50:07.202Z,15.70
2018-09-21T09:52:36.917Z,7.30
2018-09-21T09:55:08.173Z,8.83
2018-09-21T09:57:37.832Z,15.23
2018-09-21T10:00:08.358Z,6.77
2018-09-21T10:02:37.943Z,6.37
2018-09-21T10:05:07.942Z,8.33
2018-09-21T10:07:37.733Z,6.07
2018-09-21T10:10:07.590Z,6.57
2018-09-21T10:12:37.480Z,12.27
2018-09-21T10:15:07.085Z,9.80
2018-09-21T10:17:36.812Z,13.83
2018-09-21T10:20:06.662Z,8.20
2018-09-21T10:22:36.245Z,8.93
2018-09-21T10:25:05.943Z,7.47
2018-09-21T10:27:35.969Z,7.03
2018-09-21T10:30:06.551Z,8.87
2018-09-21T10:32:36.417Z,4.93
2018-09-21T10:35:06.284Z,9.13
2018-09-21T10:37:35.918Z,6.70
2018-09-21T10:40:05.614Z,6.43
2018-09-21T10:42:35.262Z,8.07
2018-09-21T10:45:05.278Z,5.43
2018-09-21T10:47:34.826Z,8.63
2018-09-21T10:50:04.709Z,11.77
2018-09-21T10:52:34.626Z,4.90
2018-09-21T10:55:04.659Z,6.30
2018-09-21T10:57:34.445Z,7.40
2018-09-21T11:00:04.180Z,6.23
2018-09-21T11:02:33.760Z,7.47
2018-09-21T11:05:03.434Z,7.60
2018-09-21T11:07:34.007Z,4.60
2018-09-21T11:10:03.660Z,7.57
2018-09-21T11:12:33.535Z,5.43
2018-09-21T11:15:03.767Z,9.47
2018-09-21T11:17:33.389Z,7.33
2018-09-21T11:20:03.795Z,6.40
2018-09-21T11:22:33.446Z,4.00
2018-09-21T11:25:03.199Z,15.77
2018-09-21T11:27:32.871Z,12.07
2018-09-21T11:30:02.511Z,11.20
2018-09-21T11:32:32.230Z,20.97
2018-09-21T11:35:01.927Z,20.73
2018-09-21T11:37:31.540Z,22.67
2018-09-21T11:40:01.077Z,12.97
2018-09-21T11:42:30.767Z,9.63
2018-09-21T11:45:00.446Z,8.40
2018-09-21T11:47:30.169Z,11.07
2018-09-21T11:49:59.777Z,4.80
2018-09-21T11:52:29.504Z,10.45
2018-09-21T11:54:59.050Z,4.43
2018-09-21T11:57:28.607Z,6.13
2018-09-21T11:59:58.108Z,6.95
2018-09-21T12:02:27.636Z,7.63
2018-09-21T12:04:57.740Z,8.60
2018-09-21T12:07:27.254Z,8.47
2018-09-21T12:09:56.877Z,10.03
2018-09-21T12:12:26.507Z,5.80
2018-09-21T12:14:56.161Z,14.17
2018-09-21T12:17:25.736Z,7.07
2018-09-21T12:19:55.533Z,9.65
2018-09-21T12:22:26.084Z,10.33
2018-09-21T12:24:55.710Z,9.93
2018-09-21T12:27:25.405Z,7.95
2018-09-21T12:29:55.076Z,6.97
2018-09-21T12:32:24.812Z,7.17
2018-09-21T12:34:54.547Z,12.63
2018-09-21T12:37:24.079Z,7.50
2018-09-21T12:39:53.708Z,9.13
2018-09-21T12:42:49.556Z,5.17
2018-09-21T12:45:19.254Z,7.30
2018-09-21T12:47:48.999Z,12.00
2018-09-21T12:50:18.652Z,15.27
2018-09-21T12:52:48.166Z,7.50
2018-09-21T12:55:17.995Z,7.03
2018-09-21T12:57:47.514Z,10.40
2018-09-21T13:00:17.455Z,7.73
2018-09-21T13:02:47.145Z,7.63
2018-09-21T13:05:16.859Z,6.30
2018-09-21T13:07:46.385Z,5.07
2018-09-21T13:10:16.051Z,6.00
2018-09-21T13:12:45.528Z,12.10
2018-09-21T13:15:15.253Z,6.93
2018-09-21T13:17:44.838Z,9.93
2018-09-21T13:20:14.509Z,7.67
2018-09-21T13:22:44.369Z,9.20
2018-09-21T13:25:14.184Z,4.13
2018-09-21T13:27:43.905Z,7.03
2018-09-21T13:30:13.642Z,7.40
2018-09-21T13:32:43.115Z,9.47
2018-09-21T13:35:13.024Z,6.80
2018-09-21T13:37:42.761Z,5.30
2018-09-21T13:40:12.332Z,9.47
2018-09-21T13:42:42.085Z,3.90
2018-09-21T13:45:11.709Z,4.23
2018-09-21T13:47:41.593Z,7.07
2018-09-21T13:50:11.258Z,5.77
2018-09-21T13:52:40.793Z,4.57
2018-09-21T13:55:10.490Z,13.50
2018-09-21T13:57:40.304Z,8.33
2018-09-21T14:00:11.641Z,7.87
2018-09-21T14:02:42.045Z,8.50
2018-09-21T14:05:12.857Z,6.03
2018-09-21T14:07:43.030Z,5.73
2018-09-21T14:10:12.993Z,11.37
2018-09-21T14:12:42.655Z,5.57
2018-09-21T14:15:12.588Z,10.40
2018-09-21T14:17:42.267Z,11.00
2018-09-21T14:20:11.920Z,15.90
2018-09-21T14:22:41.729Z,10.40
2018-09-21T14:25:11.516Z,15.23
2018-09-21T14:27:41.166Z,10.07
2018-09-21T14:30:10.754Z,5.67
2018-09-21T14:32:40.399Z,5.43
2018-09-21T14:35:10.132Z,5.67
2018-09-21T14:37:39.820Z,9.63
2018-09-21T14:40:09.771Z,4.73
2018-09-21T14:42:39.264Z,5.47
2018-09-21T14:45:08.947Z,5.17
2018-09-21T14:47:38.666Z,6.77
2018-09-21T14:50:08.654Z,8.43
2018-09-21T14:52:38.465Z,15.83
2018-09-21T14:55:09.368Z,6.20
2018-09-21T14:57:39.031Z,12.90
2018-09-21T15:00:08.713Z,5.10
2018-09-21T15:02:38.269Z,6.27
2018-09-21T15:05:07.874Z,8.33
2018-09-21T15:07:37.455Z,14.27
2018-09-21T15:10:07.085Z,6.80
2018-09-21T15:12:36.900Z,20.07
2018-09-21T15:15:06.723Z,10.47
2018-09-21T15:17:36.569Z,4.63
2018-09-21T15:20:06.295Z,10.60
2018-09-21T15:22:35.819Z,7.67
2018-09-21T15:25:05.624Z,10.90
2018-09-21T15:27:35.296Z,8.73
2018-09-21T15:30:05.019Z,4.67
2018-09-21T15:32:34.785Z,6.43
2018-09-21T15:35:04.433Z,5.17
2018-09-21T15:37:34.200Z,5.33
2018-09-21T15:40:04.024Z,5.53
2018-09-21T15:42:33.638Z,23.63
2018-09-21T15:45:03.374Z,11.13
2018-09-21T15:47:32.985Z,25.97
2018-09-21T15:50:02.644Z,7.17
2018-09-21T15:52:32.168Z,9.73
2018-09-21T15:55:01.714Z,7.40
2018-09-21T15:57:31.433Z,6.30
2018-09-21T16:00:01.700Z,9.47
2018-09-21T16:02:31.433Z,6.97
2018-09-21T16:05:01.126Z,8.37
2018-09-21T16:07:31.349Z,7.97
2018-09-21T16:10:02.499Z,9.10
2018-09-21T16:12:32.212Z,9.13
2018-09-21T16:15:01.850Z,11.27
2018-09-21T16:17:31.621Z,13.83
2018-09-21T16:20:01.424Z,13.63
2018-09-21T16:22:31.174Z,11.53
2018-09-21T16:25:01.145Z,21.37
2018-09-21T16:27:30.837Z,18.77
2018-09-21T16:30:00.754Z,23.47
2018-09-21T16:32:31.095Z,17.50
2018-09-21T16:35:00.834Z,15.13
2018-09-21T16:37:30.530Z,16.47
2018-09-21T16:40:00.250Z,17.37
2018-09-21T16:42:30.274Z,10.37
2018-09-21T16:45:00.070Z,9.13
2018-09-21T16:47:29.909Z,15.03
2018-09-21T16:50:00.915Z,11.97
2018-09-21T16:52:30.580Z,8.23
2018-09-21T16:55:00.250Z,10.77
2018-09-21T16:57:29.693Z,11.90
2018-09-21T16:59:59.143Z,13.00
2018-09-21T17:02:28.667Z,16.47
2018-09-21T17:04:58.252Z,16.17
2018-09-21T17:07:27.700Z,14.07
2018-09-21T17:09:57.220Z,10.63
2018-09-21T17:12:26.553Z,12.13
2018-09-21T17:14:55.953Z,13.53
2018-09-21T17:17:25.405Z,11.17
2018-09-21T17:19:55.216Z,10.33
2018-09-21T17:22:24.613Z,13.40
2018-09-21T17:24:54.532Z,12.73
2018-09-21T17:27:24.300Z,28.90
2018-09-21T17:29:53.676Z,7.73
2018-09-21T17:32:23.414Z,7.93
2018-09-21T17:34:53.066Z,9.30
2018-09-21T17:37:22.526Z,7.93
2018-09-21T17:39:52.406Z,15.40
2018-09-21T17:42:21.780Z,15.33
2018-09-21T17:44:51.606Z,11.47
2018-09-21T17:47:21.381Z,13.03
2018-09-21T17:49:51.222Z,17.37
2018-09-21T17:52:20.992Z,16.07
2018-09-21T17:54:50.338Z,16.37
2018-09-21T17:57:19.750Z,21.53
2018-09-21T17:59:49.134Z,17.17
2018-09-21T18:02:18.793Z,21.97
2018-09-21T18:04:48.808Z,19.90
2018-09-21T18:07:21.081Z,18.50
2018-09-21T18:09:53.793Z,25.37
2018-09-21T18:12:23.319Z,26.03
2018-09-21T18:14:53.166Z,18.83
2018-09-21T18:17:22.727Z,35.23
2018-09-21T18:19:52.173Z,25.87
2018-09-21T18:22:21.926Z,30.63
2018-09-21T18:24:51.399Z,21.50
2018-09-21T18:27:20.765Z,23.30
2018-09-21T18:29:50.567Z,26.07
2018-09-21T18:32:20.014Z,23.03
2018-09-21T18:34:49.420Z,30.17
2018-09-21T18:37:18.839Z,26.60
2018-09-21T18:39:48.434Z,21.90
2018-09-21T18:42:17.795Z,23.80
2018-09-21T18:44:47.411Z,26.87
2018-09-21T18:47:17.040Z,18.93
2018-09-21T18:49:46.600Z,24.73
2018-09-21T18:52:16.323Z,16.33
2018-09-21T18:54:45.728Z,21.07
2018-09-21T18:57:15.057Z,25.97
2018-09-21T18:59:44.450Z,18.87
2018-09-21T19:02:13.860Z,21.37
2018-09-21T19:04:43.209Z,17.40
2018-09-21T19:07:17.786Z,19.20
2018-09-21T19:09:47.250Z,29.43
2018-09-21T19:12:16.670Z,16.53
2018-09-21T19:14:46.707Z,13.97
2018-09-21T19:17:16.268Z,20.77
2018-09-21T19:19:45.664Z,20.40
2018-09-21T19:22:15.133Z,16.30
2018-09-21T19:24:44.867Z,22.50
2018-09-21T19:27:14.723Z,32.33
2018-09-21T19:29:44.101Z,21.30
2018-09-21T19:32:13.445Z,28.33
2018-09-21T19:34:43.852Z,24.30
2018-09-21T19:37:13.200Z,23.43
2018-09-21T19:39:42.636Z,23.47
2018-09-21T19:42:11.967Z,29.13
2018-09-21T19:44:41.774Z,32.47
2018-09-21T19:47:11.145Z,27.67
2018-09-21T19:49:40.644Z,29.83
2018-09-21T19:52:10.040Z,33.13
2018-09-21T19:54:39.505Z,44.67
2018-09-21T19:57:08.858Z,61.17
2018-09-21T19:59:38.493Z,43.57
2018-09-21T20:02:08.617Z,28.33
2018-09-21T20:04:38.456Z,31.80
2018-09-21T20:07:08.350Z,30.40
2018-09-21T20:09:37.987Z,40.10
2018-09-21T20:12:07.771Z,35.97
2018-09-21T20:14:37.756Z,37.63
2018-09-21T20:17:07.828Z,35.33
2018-09-21T20:19:38.698Z,39.80
2018-09-21T20:22:10.583Z,36.23
2018-09-21T20:24:40.053Z,32.10
2018-09-21T20:27:09.442Z,35.83
2018-09-21T20:29:39.434Z,26.97
2018-09-21T20:32:14.080Z,28.90
2018-09-21T20:34:44.018Z,26.60
2018-09-21T20:37:13.553Z,30.80
2018-09-21T20:39:43.269Z,21.67
2018-09-21T20:42:12.921Z,27.30
2018-09-21T20:44:43.080Z,23.63
2018-09-21T20:47:12.760Z,26.07
2018-09-21T20:49:42.107Z,22.23
2018-09-21T20:52:11.537Z,20.00
2018-09-21T20:54:41.147Z,26.47
2018-09-21T20:57:10.712Z,26.40
2018-09-21T20:59:40.182Z,27.90
2018-09-21T21:02:10.007Z,34.63
2018-09-21T21:04:39.685Z,27.17
2018-09-21T21:07:09.416Z,25.50
2018-09-21T21:09:38.909Z,30.93
2018-09-21T21:12:15.107Z,27.50
2018-09-21T21:14:44.878Z,40.47
2018-09-21T21:17:14.367Z,31.03
2018-09-21T21:19:44.132Z,23.63
2018-09-21T21:22:13.900Z,36.77
2018-09-21T21:24:43.248Z,26.50
2018-09-21T21:27:13.112Z,33.13
2018-09-21T21:29:43.009Z,29.63
2018-09-21T21:32:12.602Z,29.47
2018-09-21T21:34:42.065Z,31.50
2018-09-21T21:37:11.495Z,31.23
2018-09-21T21:39:40.880Z,28.93
2018-09-21T21:42:10.550Z,25.00
2018-09-21T21:44:40.759Z,23.67
2018-09-21T21:47:10.554Z,30.60
2018-09-21T21:49:40.061Z,27.23
2018-09-21T21:52:09.470Z,25.43
2018-09-21T21:54:39.072Z,33.90
2018-09-21T21:57:08.522Z,30.23
2018-09-21T21:59:37.892Z,38.67
2018-09-21T22:02:11.030Z,38.07
2018-09-21T22:04:41.431Z,38.20
2018-09-21T22:07:12.088Z,22.80
2018-09-21T22:09:41.809Z,29.60
2018-09-21T22:12:16.626Z,32.63
2018-09-21T22:14:46.279Z,22.60
2018-09-21T22:17:15.942Z,30.17
2018-09-21T22:19:45.782Z,26.53
2018-09-21T22:22:15.332Z,21.77
2018-09-21T22:24:44.901Z,32.77
2018-09-21T22:27:14.632Z,29.93
2018-09-21T22:29:44.036Z,26.00
2018-09-21T22:32:13.618Z,34.80
2018-09-21T22:34:44.281Z,31.73
2018-09-21T22:37:13.717Z,27.03
2018-09-21T22:39:43.369Z,26.93
2018-09-21T22:42:13.028Z,18.80
2018-09-21T22:44:42.698Z,23.10
2018-09-21T22:47:12.417Z,27.80
2018-09-21T22:49:42.099Z,26.33
2018-09-21T22:52:12.075Z,25.73
2018-09-21T22:54:41.579Z,21.03
2018-09-21T22:57:11.264Z,33.93
2018-09-21T22:59:41.399Z,24.40
2018-09-21T23:02:11.055Z,35.23
2018-09-21T23:04:40.868Z,27.30
2018-09-21T23:07:10.612Z,25.77
2018-09-21T23:09:40.200Z,26.83
2018-09-21T23:12:09.989Z,21.60
2018-09-21T23:14:39.668Z,22.80
2018-09-21T23:17:09.303Z,28.70
2018-09-21T23:19:39.796Z,28.93
2018-09-21T23:22:09.757Z,34.23
2018-09-21T23:24:39.617Z,27.27
2018-09-21T23:27:09.196Z,28.70
2018-09-21T23:29:39.038Z,27.53
2018-09-21T23:32:08.791Z,30.80
2018-09-21T23:34:38.496Z,22.27
2018-09-21T23:37:08.366Z,26.50
2018-09-21T23:39:37.981Z,30.10
2018-09-21T23:42:07.967Z,41.10
2018-09-21T23:44:37.637Z,35.60
2018-09-21T23:47:07.128Z,39.47
2018-09-21T23:49:36.775Z,32.33
2018-09-21T23:52:06.618Z,23.60
2018-09-21T23:54:36.087Z,25.07
2018-09-21T23:57:05.635Z,21.40
2018-09-21T23:59:35.394Z,20.53
